Time,TemperatureF,DewpointF,PressureIn,WindDirection,WindDirectionDegrees,WindSpeedMPH,WindSpeedGustMPH,Humidity,HourlyPrecipIn,Conditions,Clouds,dailyrainin,SoftwareType,DateUTC
2013-04-04 00:00:00,49.7,26.3,30.25,WNW,293,0.0,0.4,40,0.00,,,0.00,WUHU216HW,2013-04-04 04:00:00,
2013-04-04 00:05:00,49.7,26.3,30.24,NW,315,0.0,0.4,40,0.00,,,0.00,WUHU216HW,2013-04-04 04:05:00,
2013-04-04 00:10:00,49.3,26.0,30.24,NNW,338,0.0,0.0,40,0.00,,,0.00,WUHU216HW,2013-04-04 04:10:00,
2013-04-04 00:15:00,49.3,26.0,30.24,North,0,0.0,0.4,40,0.00,,,0.00,WUHU216HW,2013-04-04 04:15:00,
2013-04-04 00:20:00,49.1,25.8,30.24,NNE,23,0.2,0.4,40,0.00,,,0.00,WUHU216HW,2013-04-04 04:20:00,
2013-04-04 00:25:00,49.0,25.7,30.23,North,0,0.0,0.4,40,0.00,,,0.00,WUHU216HW,2013-04-04 04:25:00,
2013-04-04 00:30:00,49.0,25.7,30.24,WSW,248,0.2,0.2,40,0.00,,,0.00,WUHU216HW,2013-04-04 04:30:00,
2013-04-04 00:35:00,49.1,26.4,30.23,West,270,0.4,0.4,41,0.00,,,0.00,WUHU216HW,2013-04-04 04:35:00,
2013-04-04 00:40:00,49.0,26.2,30.24,WNW,293,0.0,0.4,41,0.00,,,0.00,WUHU216HW,2013-04-04 04:40:00,
2013-04-04 00:45:00,49.0,26.7,30.24,NW,315,0.4,0.4,42,0.00,,,0.00,WUHU216HW,2013-04-04 04:45:00,
2013-04-04 00:50:00,49.0,26.7,30.24,WNW,293,0.4,0.9,42,0.00,,,0.00,WUHU216HW,2013-04-04 04:50:00,
2013-04-04 00:55:00,49.0,26.7,30.24,WNW,293,0.0,0.9,42,0.00,,,0.00,WUHU216HW,2013-04-04 04:55:00,
2013-04-04 01:00:00,49.0,26.7,30.24,West,270,0.2,0.4,42,0.00,,,0.00,WUHU216HW,2013-04-04 05:00:00,
2013-04-04 01:05:00,49.0,26.7,30.24,West,270,0.0,0.4,42,0.00,,,0.00,WUHU216HW,2013-04-04 05:05:00,
2013-04-04 01:10:00,49.0,26.7,30.24,WSW,248,0.0,0.4,42,0.00,,,0.00,WUHU216HW,2013-04-04 05:10:00,
2013-04-04 01:15:00,48.8,26.7,30.24,NW,315,0.0,0.0,42,0.00,,,0.00,WUHU216HW,2013-04-04 05:15:00,
2013-04-04 01:20:00,48.6,26.5,30.23,NW,315,0.0,0.0,42,0.00,,,0.00,WUHU216HW,2013-04-04 05:20:00,
2013-04-04 01:25:00,48.6,27.0,30.23,NNW,338,0.0,0.2,43,0.00,,,0.00,WUHU216HW,2013-04-04 05:25:00,
2013-04-04 01:30:00,47.9,27.9,30.24,NE,45,2.5,3.8,46,0.00,,,0.00,WUHU216HW,2013-04-04 05:30:00,
2013-04-04 01:35:00,47.5,26.0,30.24,ESE,113,2.7,3.8,43,0.00,,,0.00,WUHU216HW,2013-04-04 05:35:00,
2013-04-04 01:40:00,47.2,25.7,30.24,NNE,23,2.0,6.9,43,0.00,,,0.00,WUHU216HW,2013-04-04 05:40:00,
2013-04-04 01:45:00,46.8,24.9,30.25,ENE,68,4.7,6.9,42,0.00,,,0.00,WUHU216HW,2013-04-04 05:45:00,
2013-04-04 01:50:00,46.4,24.5,30.25,NNE,23,2.0,6.3,42,0.00,,,0.00,WUHU216HW,2013-04-04 05:50:00,
2013-04-04 01:55:00,46.3,23.8,30.25,ENE,68,3.8,5.4,41,0.00,,,0.00,WUHU216HW,2013-04-04 05:55:00,
2013-04-04 02:00:00,46.1,23.6,30.25,ENE,68,4.0,5.4,41,0.00,,,0.00,WUHU216HW,2013-04-04 06:00:00,
2013-04-04 02:05:00,45.9,23.5,30.25,NE,45,1.1,5.4,41,0.00,,,0.00,WUHU216HW,2013-04-04 06:05:00,
2013-04-04 02:10:00,45.7,23.3,30.25,East,90,2.9,4.3,41,0.00,,,0.00,WUHU216HW,2013-04-04 06:10:00,
2013-04-04 02:15:00,45.7,23.3,30.24,ENE,68,1.1,4.7,41,0.00,,,0.00,WUHU216HW,2013-04-04 06:15:00,
2013-04-04 02:20:00,45.7,23.3,30.25,NE,45,1.6,4.7,41,0.00,,,0.00,WUHU216HW,2013-04-04 06:20:00,
2013-04-04 02:25:00,45.5,22.6,30.25,ENE,68,2.7,4.3,40,0.00,,,0.00,WUHU216HW,2013-04-04 06:25:00,
2013-04-04 02:30:00,45.4,23.0,30.24,ENE,68,3.8,4.3,41,0.00,,,0.00,WUHU216HW,2013-04-04 06:30:00,
2013-04-04 02:35:00,45.4,23.0,30.24,NE,45,0.9,4.0,41,0.00,,,0.00,WUHU216HW,2013-04-04 06:35:00,
2013-04-04 02:40:00,45.2,22.8,30.24,NE,45,1.3,3.8,41,0.00,,,0.00,WUHU216HW,2013-04-04 06:40:00,
2013-04-04 02:45:00,45.0,22.7,30.24,ENE,68,2.5,4.0,41,0.00,,,0.00,WUHU216HW,2013-04-04 06:45:00,
2013-04-04 02:50:00,45.0,23.2,30.24,North,0,2.0,4.0,42,0.00,,,0.00,WUHU216HW,2013-04-04 06:50:00,
2013-04-04 02:55:00,45.0,23.2,30.24,ENE,68,1.8,3.4,42,0.00,,,0.00,WUHU216HW,2013-04-04 06:55:00,
2013-04-04 03:00:00,44.8,23.1,30.24,ENE,68,2.2,3.4,42,0.00,,,0.00,WUHU216HW,2013-04-04 07:00:00,
2013-04-04 03:05:00,44.6,22.9,30.24,East,90,1.1,2.9,42,0.00,,,0.00,WUHU216HW,2013-04-04 07:05:00,
2013-04-04 03:10:00,44.6,23.4,30.24,ESE,113,1.3,3.6,43,0.00,,,0.00,WUHU216HW,2013-04-04 07:10:00,
2013-04-04 03:15:00,44.5,23.2,30.25,NE,45,0.9,3.6,43,0.00,,,0.00,WUHU216HW,2013-04-04 07:15:00,
2013-04-04 03:20:00,44.3,23.0,30.25,NE,45,1.1,4.0,43,0.00,,,0.00,WUHU216HW,2013-04-04 07:20:00,
2013-04-04 03:25:00,44.3,23.6,30.26,East,90,0.9,4.0,44,0.00,,,0.00,WUHU216HW,2013-04-04 07:25:00,
2013-04-04 03:30:00,44.3,24.1,30.26,ESE,113,2.5,4.3,45,0.00,,,0.00,WUHU216HW,2013-04-04 07:30:00,
2013-04-04 03:35:00,44.3,24.1,30.26,ENE,68,1.3,4.3,45,0.00,,,0.00,WUHU216HW,2013-04-04 07:35:00,
2013-04-04 03:40:00,44.1,24.6,30.26,ENE,68,1.3,2.5,46,0.00,,,0.00,WUHU216HW,2013-04-04 07:40:00,
2013-04-04 03:45:00,43.9,25.5,30.26,ENE,68,1.3,3.4,48,0.00,,,0.00,WUHU216HW,2013-04-04 07:45:00,
2013-04-04 03:50:00,43.7,26.8,30.26,East,90,1.3,3.4,51,0.00,,,0.00,WUHU216HW,2013-04-04 07:50:00,
2013-04-04 03:55:00,43.6,26.6,30.26,ESE,113,2.2,5.1,51,0.00,,,0.00,WUHU216HW,2013-04-04 07:55:00,
2013-04-04 04:00:00,43.6,27.1,30.26,ENE,68,1.1,6.3,52,0.00,,,0.00,WUHU216HW,2013-04-04 08:00:00,
2013-04-04 04:05:00,43.4,27.4,30.26,East,90,2.0,6.3,53,0.00,,,0.00,WUHU216HW,2013-04-04 08:05:00,
2013-04-04 04:10:00,43.2,27.2,30.26,East,90,1.1,3.4,53,0.00,,,0.00,WUHU216HW,2013-04-04 08:10:00,
2013-04-04 04:15:00,43.2,29.3,30.25,SE,135,3.6,5.6,58,0.00,,,0.00,WUHU216HW,2013-04-04 08:15:00,
2013-04-04 04:20:00,43.0,28.4,30.26,ENE,68,2.0,5.6,56,0.00,,,0.00,WUHU216HW,2013-04-04 08:20:00,
2013-04-04 04:25:00,43.0,27.9,30.26,NE,45,2.0,2.5,55,0.00,,,0.00,WUHU216HW,2013-04-04 08:25:00,
2013-04-04 04:30:00,43.0,28.4,30.26,NE,45,1.8,2.0,56,0.00,,,0.00,WUHU216HW,2013-04-04 08:30:00,
2013-04-04 04:35:00,43.0,28.4,30.26,ENE,68,1.3,3.1,56,0.00,,,0.00,WUHU216HW,2013-04-04 08:35:00,
2013-04-04 04:40:00,42.8,29.9,30.26,ENE,68,1.1,3.6,60,0.00,,,0.00,WUHU216HW,2013-04-04 08:40:00,
2013-04-04 04:45:00,42.8,29.4,30.26,ENE,68,2.0,3.6,59,0.00,,,0.00,WUHU216HW,2013-04-04 08:45:00,
2013-04-04 04:51:00,42.8,29.9,30.26,ENE,68,1.1,2.7,60,0.00,,,0.00,WUHU216HW,2013-04-04 08:51:00,
2013-04-04 04:55:00,42.8,30.2,30.26,ENE,68,2.0,4.3,61,0.00,,,0.00,WUHU216HW,2013-04-04 08:55:00,
2013-04-04 05:00:00,42.8,30.2,30.26,NE,45,2.2,4.3,61,0.00,,,0.00,WUHU216HW,2013-04-04 09:00:00,
2013-04-04 05:05:00,42.8,30.2,30.27,ENE,68,3.6,4.9,61,0.00,,,0.00,WUHU216HW,2013-04-04 09:05:00,
2013-04-04 05:10:00,42.7,29.3,30.26,ENE,68,1.8,4.9,59,0.00,,,0.00,WUHU216HW,2013-04-04 09:10:00,
2013-04-04 05:15:00,42.8,29.4,30.26,East,90,2.2,4.9,59,0.00,,,0.00,WUHU216HW,2013-04-04 09:15:00,
2013-04-04 05:21:00,42.8,29.0,30.26,ENE,68,1.6,2.9,58,0.00,,,0.00,WUHU216HW,2013-04-04 09:21:00,
2013-04-04 05:26:00,42.8,29.0,30.26,East,90,0.9,2.5,58,0.00,,,0.00,WUHU216HW,2013-04-04 09:26:00,
2013-04-04 05:31:00,42.7,29.3,30.27,NE,45,1.1,2.5,59,0.00,,,0.00,WUHU216HW,2013-04-04 09:31:00,
2013-04-04 05:36:00,42.7,28.9,30.28,ENE,68,2.0,2.5,58,0.00,,,0.00,WUHU216HW,2013-04-04 09:36:00,
2013-04-04 05:41:00,42.7,28.9,30.28,ENE,68,0.7,3.4,58,0.00,,,0.00,WUHU216HW,2013-04-04 09:41:00,
2013-04-04 05:46:00,42.5,28.3,30.28,ENE,68,0.4,3.6,57,0.00,,,0.00,WUHU216HW,2013-04-04 09:46:00,
2013-04-04 05:51:00,42.5,27.8,30.27,ENE,68,1.3,3.6,56,0.00,,,0.00,WUHU216HW,2013-04-04 09:51:00,
2013-04-04 05:56:00,42.3,28.1,30.27,ESE,113,2.0,3.4,57,0.00,,,0.00,WUHU216HW,2013-04-04 09:56:00,
2013-04-04 06:01:00,42.3,28.5,30.27,ENE,68,2.7,3.4,58,0.00,,,0.00,WUHU216HW,2013-04-04 10:01:00,
2013-04-04 06:06:00,42.1,27.9,30.27,ENE,68,1.6,3.1,57,0.00,,,0.00,WUHU216HW,2013-04-04 10:06:00,
2013-04-04 06:11:00,42.1,27.9,30.28,ENE,68,1.8,3.8,57,0.00,,,0.00,WUHU216HW,2013-04-04 10:11:00,
2013-04-04 06:16:00,41.9,27.7,30.28,ENE,68,1.8,4.7,57,0.00,,,0.00,WUHU216HW,2013-04-04 10:16:00,
2013-04-04 06:21:00,41.9,27.7,30.28,ENE,68,1.8,4.7,57,0.00,,,0.00,WUHU216HW,2013-04-04 10:21:00,
2013-04-04 06:26:00,41.9,27.7,30.28,NE,45,1.1,2.5,57,0.00,,,0.00,WUHU216HW,2013-04-04 10:26:00,
2013-04-04 06:31:00,41.8,27.2,30.28,NE,45,1.8,2.2,56,0.00,,,0.00,WUHU216HW,2013-04-04 10:31:00,
2013-04-04 06:36:00,41.8,27.5,30.29,ENE,68,0.7,4.3,57,0.00,,,0.00,WUHU216HW,2013-04-04 10:36:00,
2013-04-04 06:41:00,41.6,27.5,30.28,ENE,68,1.1,4.0,57,0.00,,,0.00,WUHU216HW,2013-04-04 10:41:00,
2013-04-04 06:46:00,41.6,27.9,30.28,ENE,68,1.8,3.4,58,0.00,,,0.00,WUHU216HW,2013-04-04 10:46:00,
2013-04-04 06:51:00,41.4,27.3,30.28,ENE,68,1.8,3.4,57,0.00,,,0.00,WUHU216HW,2013-04-04 10:51:00,
2013-04-04 06:56:00,41.4,27.3,30.28,ENE,68,2.9,3.4,57,0.00,,,0.00,WUHU216HW,2013-04-04 10:56:00,
2013-04-04 07:01:00,41.4,27.3,30.28,NE,45,2.2,4.0,57,0.00,,,0.00,WUHU216HW,2013-04-04 11:01:00,
2013-04-04 07:07:00,41.2,27.1,30.29,ESE,113,1.8,5.8,57,0.00,,,0.00,WUHU216HW,2013-04-04 11:07:00,
2013-04-04 07:12:00,41.2,27.1,30.29,ESE,113,1.8,5.8,57,0.00,,,0.00,WUHU216HW,2013-04-04 11:12:00,
2013-04-04 07:17:00,41.2,26.7,30.29,ESE,113,1.8,3.1,56,0.00,,,0.00,WUHU216HW,2013-04-04 11:17:00,
2013-04-04 07:22:00,41.0,26.5,30.29,ENE,68,1.8,5.8,56,0.00,,,0.00,WUHU216HW,2013-04-04 11:22:00,
2013-04-04 07:27:00,41.0,26.9,30.30,NE,45,3.4,5.8,57,0.00,,,0.00,WUHU216HW,2013-04-04 11:27:00,
2013-04-04 07:32:00,41.0,26.5,30.30,East,90,2.9,3.4,56,0.00,,,0.00,WUHU216HW,2013-04-04 11:32:00,
2013-04-04 07:37:00,41.0,26.5,30.30,East,90,1.1,3.4,56,0.00,,,0.00,WUHU216HW,2013-04-04 11:37:00,
2013-04-04 07:42:00,41.2,27.1,30.31,NE,45,0.4,3.4,57,0.00,,,0.00,WUHU216HW,2013-04-04 11:42:00,
2013-04-04 07:47:00,41.2,27.1,30.30,ENE,68,1.3,2.2,57,0.00,,,0.00,WUHU216HW,2013-04-04 11:47:00,
2013-04-04 07:52:00,41.2,27.1,30.30,ENE,68,2.5,3.4,57,0.00,,,0.00,WUHU216HW,2013-04-04 11:52:00,
2013-04-04 07:57:00,41.4,27.3,30.30,ENE,68,1.3,3.6,57,0.00,,,0.00,WUHU216HW,2013-04-04 11:57:00,
2013-04-04 08:02:00,41.4,26.8,30.31,ENE,68,1.8,5.1,56,0.00,,,0.00,WUHU216HW,2013-04-04 12:02:00,
2013-04-04 08:07:00,41.6,26.6,30.31,East,90,2.0,5.1,55,0.00,,,0.00,WUHU216HW,2013-04-04 12:07:00,
2013-04-04 08:12:00,41.6,26.6,30.32,ENE,68,2.2,4.9,55,0.00,,,0.00,WUHU216HW,2013-04-04 12:12:00,
2013-04-04 08:17:00,41.8,26.3,30.31,East,90,3.4,4.9,54,0.00,,,0.00,WUHU216HW,2013-04-04 12:17:00,
2013-04-04 08:22:00,41.9,26.9,30.31,ESE,113,4.9,4.9,55,0.00,,,0.00,WUHU216HW,2013-04-04 12:22:00,
2013-04-04 08:27:00,42.1,26.7,30.31,East,90,2.2,5.6,54,0.00,,,0.00,WUHU216HW,2013-04-04 12:27:00,
2013-04-04 08:32:00,42.3,26.7,30.31,ENE,68,1.8,5.6,54,0.00,,,0.00,WUHU216HW,2013-04-04 12:32:00,
2013-04-04 08:37:00,42.5,26.6,30.31,NE,45,3.8,4.0,53,0.00,,,0.00,WUHU216HW,2013-04-04 12:37:00,
2013-04-04 08:42:00,42.7,26.6,30.31,ENE,68,1.6,5.1,53,0.00,,,0.00,WUHU216HW,2013-04-04 12:42:00,
2013-04-04 08:47:00,42.7,26.6,30.31,ENE,68,1.8,5.1,53,0.00,,,0.00,WUHU216HW,2013-04-04 12:47:00,
2013-04-04 08:52:00,42.8,26.5,30.31,ENE,68,4.7,4.9,52,0.00,,,0.00,WUHU216HW,2013-04-04 12:52:00,
2013-04-04 08:57:00,42.8,26.5,30.31,East,90,2.2,5.4,52,0.00,,,0.00,WUHU216HW,2013-04-04 12:57:00,
2013-04-04 09:02:00,43.0,26.2,30.31,East,90,5.4,5.4,51,0.00,,,0.00,WUHU216HW,2013-04-04 13:02:00,
2013-04-04 09:07:00,43.2,26.7,30.31,NNE,23,1.6,5.4,52,0.00,,,0.00,WUHU216HW,2013-04-04 13:07:00,
2013-04-04 09:12:00,43.6,26.6,30.31,ENE,68,3.4,4.9,51,0.00,,,0.00,WUHU216HW,2013-04-04 13:12:00,
2013-04-04 09:17:00,43.6,26.2,30.30,ESE,113,3.4,5.4,50,0.00,,,0.00,WUHU216HW,2013-04-04 13:17:00,
2013-04-04 09:22:00,43.6,26.2,30.30,ESE,113,2.5,5.4,50,0.00,,,0.00,WUHU216HW,2013-04-04 13:22:00,
2013-04-04 09:27:00,43.6,26.6,30.29,ENE,68,3.4,4.7,51,0.00,,,0.00,WUHU216HW,2013-04-04 13:27:00,
2013-04-04 09:32:00,43.7,26.8,30.30,East,90,3.4,4.7,51,0.00,,,0.00,WUHU216HW,2013-04-04 13:32:00,
2013-04-04 09:37:00,44.1,26.7,30.30,SE,135,5.4,5.4,50,0.00,,,0.00,WUHU216HW,2013-04-04 13:37:00,
2013-04-04 09:42:00,44.3,26.8,30.30,SE,135,4.3,6.3,50,0.00,,,0.00,WUHU216HW,2013-04-04 13:42:00,
2013-04-04 09:47:00,44.5,27.0,30.30,NNE,23,3.4,6.3,50,0.00,,,0.00,WUHU216HW,2013-04-04 13:47:00,
2013-04-04 09:52:00,44.5,26.5,30.30,East,90,6.0,6.0,49,0.00,,,0.00,WUHU216HW,2013-04-04 13:52:00,
2013-04-04 09:57:00,44.5,27.0,30.29,ENE,68,3.4,6.0,50,0.00,,,0.00,WUHU216HW,2013-04-04 13:57:00,
2013-04-04 10:02:00,44.3,26.8,30.29,East,90,3.6,6.0,50,0.00,,,0.00,WUHU216HW,2013-04-04 14:02:00,
2013-04-04 10:07:00,44.3,26.8,30.29,ENE,68,6.3,6.3,50,0.00,,,0.00,WUHU216HW,2013-04-04 14:07:00,
2013-04-04 10:12:00,44.3,26.8,30.29,ESE,113,1.8,6.3,50,0.00,,,0.00,WUHU216HW,2013-04-04 14:12:00,
2013-04-04 10:17:00,44.3,26.8,30.29,East,90,4.0,5.8,50,0.00,,,0.00,WUHU216HW,2013-04-04 14:17:00,
2013-04-04 10:22:00,44.3,27.3,30.28,ENE,68,3.4,5.8,51,0.00,,,0.00,WUHU216HW,2013-04-04 14:22:00,
2013-04-04 10:27:00,44.5,27.0,30.28,East,90,1.1,5.6,50,0.00,,,0.00,WUHU216HW,2013-04-04 14:27:00,
2013-04-04 10:32:00,44.8,27.8,30.29,SE,135,3.4,5.6,51,0.00,,,0.00,WUHU216HW,2013-04-04 14:32:00,
2013-04-04 10:37:00,45.0,27.6,30.28,ENE,68,3.1,5.4,50,0.00,,,0.00,WUHU216HW,2013-04-04 14:37:00,
2013-04-04 10:43:00,45.2,27.6,30.28,ESE,113,3.8,5.1,50,0.00,,,0.00,WUHU216HW,2013-04-04 14:43:00,
2013-04-04 10:48:00,45.5,28.0,30.28,ESE,113,2.7,4.0,50,0.00,,,0.00,WUHU216HW,2013-04-04 14:48:00,
2013-04-04 10:53:00,45.7,28.2,30.27,NE,45,1.8,4.0,50,0.00,,,0.00,WUHU216HW,2013-04-04 14:53:00,
2013-04-04 10:58:00,45.9,28.4,30.27,ENE,68,3.1,4.0,50,0.00,,,0.00,WUHU216HW,2013-04-04 14:58:00,
2013-04-04 11:03:00,45.9,28.4,30.27,East,90,1.8,4.7,50,0.00,,,0.00,WUHU216HW,2013-04-04 15:03:00,
2013-04-04 11:08:00,45.7,28.2,30.27,East,90,3.1,4.7,50,0.00,,,0.00,WUHU216HW,2013-04-04 15:08:00,
2013-04-04 11:13:00,46.1,28.4,30.26,NE,45,4.7,5.1,50,0.00,,,0.00,WUHU216HW,2013-04-04 15:13:00,
2013-04-04 11:18:00,46.4,28.8,30.26,ENE,68,4.7,5.1,50,0.00,,,0.00,WUHU216HW,2013-04-04 15:18:00,
2013-04-04 11:23:00,47.0,29.3,30.26,NNE,23,2.2,5.8,50,0.00,,,0.00,WUHU216HW,2013-04-04 15:23:00,
2013-04-04 11:28:00,47.2,28.4,30.27,NE,45,4.0,6.0,48,0.00,,,0.00,WUHU216HW,2013-04-04 15:28:00,
2013-04-04 11:33:00,47.2,28.9,30.26,East,90,1.1,6.0,49,0.00,,,0.00,WUHU216HW,2013-04-04 15:33:00,
2013-04-04 11:38:00,47.2,28.9,30.26,East,90,2.5,3.8,49,0.00,,,0.00,WUHU216HW,2013-04-04 15:38:00,
2013-04-04 11:43:00,47.3,28.5,30.25,ENE,68,1.8,5.4,48,0.00,,,0.00,WUHU216HW,2013-04-04 15:43:00,
2013-04-04 11:48:00,47.3,28.5,30.25,ESE,113,2.9,6.9,48,0.00,,,0.00,WUHU216HW,2013-04-04 15:48:00,
2013-04-04 11:53:00,47.3,28.5,30.25,SE,135,1.3,6.9,48,0.00,,,0.00,WUHU216HW,2013-04-04 15:53:00,
2013-04-04 11:58:00,47.9,29.5,30.25,NNE,23,2.7,4.3,49,0.00,,,0.00,WUHU216HW,2013-04-04 15:58:00,
2013-04-04 12:03:00,47.9,29.5,30.24,NNE,23,1.8,5.4,49,0.00,,,0.00,WUHU216HW,2013-04-04 16:03:00,
2013-04-04 12:08:00,48.1,29.2,30.24,NE,45,1.3,5.4,48,0.00,,,0.00,WUHU216HW,2013-04-04 16:08:00,
2013-04-04 12:13:00,48.1,29.7,30.24,ENE,68,3.8,4.0,49,0.00,,,0.00,WUHU216HW,2013-04-04 16:13:00,
2013-04-04 12:18:00,48.2,29.3,30.24,ESE,113,3.6,4.5,48,0.00,,,0.00,WUHU216HW,2013-04-04 16:18:00,
2013-04-04 12:23:00,48.4,29.5,30.23,NE,45,2.0,4.9,48,0.00,,,0.00,WUHU216HW,2013-04-04 16:23:00,
2013-04-04 12:28:00,48.6,29.2,30.23,ENE,68,2.5,4.9,47,0.00,,,0.00,WUHU216HW,2013-04-04 16:28:00,
2013-04-04 12:33:00,48.6,29.2,30.23,ESE,113,3.6,6.7,47,0.00,,,0.00,WUHU216HW,2013-04-04 16:33:00,
2013-04-04 12:38:00,48.8,28.8,30.21,NE,45,4.5,6.7,46,0.00,,,0.00,WUHU216HW,2013-04-04 16:38:00,
2013-04-04 12:43:00,49.0,29.0,30.22,East,90,2.5,6.0,46,0.00,,,0.00,WUHU216HW,2013-04-04 16:43:00,
2013-04-04 12:48:00,49.3,29.9,30.21,ENE,68,1.3,5.4,47,0.00,,,0.00,WUHU216HW,2013-04-04 16:48:00,
2013-04-04 12:53:00,49.5,29.4,30.21,ENE,68,2.2,4.9,46,0.00,,,0.00,WUHU216HW,2013-04-04 16:53:00,
2013-04-04 12:58:00,49.7,29.1,30.21,ENE,68,3.6,5.4,45,0.00,,,0.00,WUHU216HW,2013-04-04 16:58:00,
2013-04-04 13:03:00,49.7,29.1,30.20,East,90,3.8,5.4,45,0.00,,,0.00,WUHU216HW,2013-04-04 17:03:00,
2013-04-04 13:08:00,50.0,29.4,30.20,ESE,113,3.4,5.8,45,0.00,,,0.00,WUHU216HW,2013-04-04 17:08:00,
2013-04-04 13:13:00,50.0,28.9,30.19,ESE,113,5.1,6.3,44,0.00,,,0.00,WUHU216HW,2013-04-04 17:13:00,
2013-04-04 13:19:00,49.9,28.7,30.19,ENE,68,2.5,6.3,44,0.00,,,0.00,WUHU216HW,2013-04-04 17:19:00,
2013-04-04 13:24:00,49.7,29.1,30.19,ENE,68,1.6,6.0,45,0.00,,,0.00,WUHU216HW,2013-04-04 17:24:00,
2013-04-04 13:29:00,49.7,29.6,30.18,ESE,113,1.1,4.3,46,0.00,,,0.00,WUHU216HW,2013-04-04 17:29:00,
2013-04-04 13:34:00,49.7,32.3,30.18,ENE,68,4.0,5.6,51,0.00,,,0.00,WUHU216HW,2013-04-04 17:34:00,
2013-04-04 13:39:00,49.0,32.0,30.18,ENE,68,1.8,5.6,52,0.00,,,0.00,WUHU216HW,2013-04-04 17:39:00,
2013-04-04 13:44:00,48.6,32.7,30.18,East,90,2.7,4.0,54,0.00,,,0.00,WUHU216HW,2013-04-04 17:44:00,
2013-04-04 13:49:00,48.4,33.0,30.18,East,90,1.6,2.7,55,0.01,,,0.01,WUHU216HW,2013-04-04 17:49:00,
2013-04-04 13:54:00,48.2,34.2,30.18,ENE,68,1.3,2.7,58,0.01,,,0.01,WUHU216HW,2013-04-04 17:54:00,
2013-04-04 13:59:00,47.9,33.4,30.18,East,90,1.3,3.4,57,0.01,,,0.01,WUHU216HW,2013-04-04 17:59:00,
2013-04-04 14:04:00,47.9,33.9,30.18,ESE,113,2.0,3.6,58,0.01,,,0.01,WUHU216HW,2013-04-04 18:04:00,
2013-04-04 14:09:00,47.9,33.4,30.18,ESE,113,1.1,3.6,57,0.01,,,0.01,WUHU216HW,2013-04-04 18:09:00,
2013-04-04 14:14:00,47.9,33.4,30.18,East,90,0.4,2.2,57,0.01,,,0.01,WUHU216HW,2013-04-04 18:14:00,
2013-04-04 14:19:00,47.9,34.3,30.18,ESE,113,1.6,3.1,59,0.01,,,0.01,WUHU216HW,2013-04-04 18:19:00,
2013-04-04 14:24:00,47.7,34.1,30.18,East,90,0.7,3.1,59,0.01,,,0.01,WUHU216HW,2013-04-04 18:24:00,
2013-04-04 14:29:00,47.3,34.6,30.18,East,90,1.1,2.2,61,0.03,,,0.03,WUHU216HW,2013-04-04 18:29:00,
2013-04-04 14:34:00,46.8,36.0,30.17,NE,45,1.3,2.0,66,0.03,,,0.03,WUHU216HW,2013-04-04 18:34:00,
2013-04-04 14:40:00,46.3,35.5,30.16,NE,45,1.1,2.0,66,0.04,,,0.04,WUHU216HW,2013-04-04 18:40:00,
2013-04-04 14:45:00,45.9,35.9,30.16,ENE,68,0.4,1.8,68,0.03,,,0.04,WUHU216HW,2013-04-04 18:45:00,
2013-04-04 14:50:00,45.7,35.7,30.16,ENE,68,1.1,2.0,68,0.03,,,0.04,WUHU216HW,2013-04-04 18:50:00,
2013-04-04 14:55:00,45.7,36.2,30.16,NNE,23,1.1,2.5,69,0.03,,,0.04,WUHU216HW,2013-04-04 18:55:00,
2013-04-04 15:00:00,45.5,36.7,30.16,ENE,68,1.1,2.5,71,0.04,,,0.05,WUHU216HW,2013-04-04 19:00:00,
2013-04-04 15:05:00,45.4,36.6,30.16,ENE,68,1.3,2.0,71,0.04,,,0.05,WUHU216HW,2013-04-04 19:05:00,
2013-04-04 15:10:00,45.2,36.4,30.15,NE,45,0.2,2.0,71,0.05,,,0.07,WUHU216HW,2013-04-04 19:10:00,
2013-04-04 15:15:00,45.0,36.8,30.14,NE,45,0.7,1.1,73,0.06,,,0.07,WUHU216HW,2013-04-04 19:15:00,
2013-04-04 15:20:00,45.0,38.3,30.13,NE,45,1.8,2.7,77,0.08,,,0.09,WUHU216HW,2013-04-04 19:20:00,
2013-04-04 15:25:00,44.6,37.9,30.12,NE,45,1.8,2.7,77,0.08,,,0.11,WUHU216HW,2013-04-04 19:25:00,
2013-04-04 15:30:00,44.3,37.2,30.12,NE,45,1.1,2.0,76,0.09,,,0.12,WUHU216HW,2013-04-04 19:30:00,
2013-04-04 15:35:00,44.1,37.0,30.12,NNE,23,0.7,2.5,76,0.10,,,0.14,WUHU216HW,2013-04-04 19:35:00,
2013-04-04 15:40:00,43.9,36.8,30.12,North,0,0.2,2.5,76,0.10,,,0.14,WUHU216HW,2013-04-04 19:40:00,
2013-04-04 15:45:00,43.7,37.4,30.12,North,0,0.7,2.0,78,0.11,,,0.16,WUHU216HW,2013-04-04 19:45:00,
2013-04-04 15:50:00,43.7,37.0,30.12,NNE,23,0.7,1.8,77,0.12,,,0.16,WUHU216HW,2013-04-04 19:50:00,
2013-04-04 15:55:00,43.7,37.0,30.12,ENE,68,1.3,1.8,77,0.13,,,0.18,WUHU216HW,2013-04-04 19:55:00,
2013-04-04 16:00:00,43.9,37.8,30.13,NE,45,1.6,1.8,79,0.12,,,0.18,WUHU216HW,2013-04-04 20:00:00,
2013-04-04 16:05:00,43.9,37.8,30.13,NE,45,1.1,2.9,79,0.11,,,0.18,WUHU216HW,2013-04-04 20:05:00,
2013-04-04 16:10:00,43.7,38.3,30.13,ENE,68,2.2,3.4,81,0.12,,,0.19,WUHU216HW,2013-04-04 20:10:00,
2013-04-04 16:15:00,43.6,38.1,30.12,North,0,1.1,3.4,81,0.11,,,0.20,WUHU216HW,2013-04-04 20:15:00,
2013-04-04 16:20:00,43.6,38.1,30.12,NE,45,1.6,2.7,81,0.11,,,0.22,WUHU216HW,2013-04-04 20:20:00,
2013-04-04 16:25:00,43.6,37.8,30.12,NE,45,0.4,2.5,80,0.12,,,0.24,WUHU216HW,2013-04-04 20:25:00,
2013-04-04 16:30:00,43.4,38.3,30.12,ESE,113,1.3,1.6,82,0.12,,,0.25,WUHU216HW,2013-04-04 20:30:00,
2013-04-04 16:35:00,43.6,37.8,30.13,SSE,158,0.9,1.6,80,0.12,,,0.26,WUHU216HW,2013-04-04 20:35:00,
2013-04-04 16:40:00,43.6,38.4,30.12,NNE,23,1.8,1.8,82,0.10,,,0.26,WUHU216HW,2013-04-04 20:40:00,
2013-04-04 16:45:00,43.6,38.4,30.12,ENE,68,1.6,2.2,82,0.10,,,0.26,WUHU216HW,2013-04-04 20:45:00,
2013-04-04 16:50:00,43.2,38.1,30.11,North,0,1.1,4.0,82,0.10,,,0.27,WUHU216HW,2013-04-04 20:50:00,
2013-04-04 16:55:00,43.2,37.7,30.11,ENE,68,2.2,4.0,81,0.10,,,0.28,WUHU216HW,2013-04-04 20:55:00,
2013-04-04 17:00:00,43.0,37.9,30.11,NE,45,1.1,2.2,82,0.10,,,0.28,WUHU216HW,2013-04-04 21:00:00,
2013-04-04 17:05:00,43.0,38.8,30.10,ENE,68,2.2,2.2,85,0.09,,,0.28,WUHU216HW,2013-04-04 21:05:00,
2013-04-04 17:10:00,42.8,38.0,30.09,ENE,68,1.6,2.9,83,0.09,,,0.29,WUHU216HW,2013-04-04 21:10:00,
2013-04-04 17:15:00,42.8,38.4,30.09,NNE,23,1.6,4.0,84,0.07,,,0.29,WUHU216HW,2013-04-04 21:15:00,
2013-04-04 17:20:00,42.7,38.2,30.10,North,0,1.8,4.0,84,0.05,,,0.29,WUHU216HW,2013-04-04 21:20:00,
2013-04-04 17:25:00,42.5,38.3,30.09,NE,45,1.6,3.8,85,0.05,,,0.30,WUHU216HW,2013-04-04 21:25:00,
2013-04-04 17:30:00,42.3,38.3,30.08,NE,45,2.7,4.0,86,0.07,,,0.32,WUHU216HW,2013-04-04 21:30:00,
2013-04-04 17:35:00,42.1,37.9,30.08,NNE,23,2.5,4.0,85,0.06,,,0.32,WUHU216HW,2013-04-04 21:35:00,
2013-04-04 17:40:00,42.1,38.2,30.08,NE,45,2.7,4.0,86,0.07,,,0.33,WUHU216HW,2013-04-04 21:40:00,
2013-04-04 17:45:00,41.9,38.0,30.08,ENE,68,1.1,4.0,86,0.06,,,0.33,WUHU216HW,2013-04-04 21:45:00,
2013-04-04 17:50:00,41.8,37.8,30.07,NE,45,2.7,3.8,86,0.06,,,0.33,WUHU216HW,2013-04-04 21:50:00,
2013-04-04 17:55:00,41.8,37.5,30.07,NE,45,0.4,3.6,85,0.06,,,0.34,WUHU216HW,2013-04-04 21:55:00,
2013-04-04 18:00:00,41.8,37.5,30.08,NNE,23,1.8,3.6,85,0.08,,,0.36,WUHU216HW,2013-04-04 22:00:00,
2013-04-04 18:05:00,41.4,37.4,30.06,NE,45,2.9,4.7,86,0.08,,,0.36,WUHU216HW,2013-04-04 22:05:00,
2013-04-04 18:10:00,41.4,37.4,30.06,NE,45,1.3,4.7,86,0.07,,,0.36,WUHU216HW,2013-04-04 22:10:00,
2013-04-04 18:15:00,41.4,37.4,30.06,NE,45,2.0,4.0,86,0.08,,,0.37,WUHU216HW,2013-04-04 22:15:00,
2013-04-04 18:20:00,41.4,37.8,30.06,North,0,5.4,5.4,87,0.07,,,0.37,WUHU216HW,2013-04-04 22:20:00,
2013-04-04 18:25:00,41.4,37.4,30.06,ENE,68,1.6,5.4,86,0.08,,,0.38,WUHU216HW,2013-04-04 22:25:00,
2013-04-04 18:31:00,41.4,37.4,30.05,ENE,68,2.0,5.4,86,0.06,,,0.38,WUHU216HW,2013-04-04 22:31:00,
2013-04-04 18:36:00,41.4,37.8,30.06,NE,45,1.6,3.1,87,0.05,,,0.38,WUHU216HW,2013-04-04 22:36:00,
2013-04-04 18:41:00,41.4,37.4,30.05,ENE,68,1.3,3.4,86,0.06,,,0.39,WUHU216HW,2013-04-04 22:41:00,
2013-04-04 18:46:00,41.4,37.4,30.05,ENE,68,2.5,3.4,86,0.06,,,0.39,WUHU216HW,2013-04-04 22:46:00,
2013-04-04 18:51:00,41.4,37.8,30.03,East,90,2.5,3.6,87,0.06,,,0.39,WUHU216HW,2013-04-04 22:51:00,
2013-04-04 18:56:00,41.2,37.6,30.02,ENE,68,5.4,7.6,87,0.04,,,0.40,WUHU216HW,2013-04-04 22:56:00,
2013-04-04 19:01:00,41.0,37.5,30.02,East,90,4.5,7.6,87,0.04,,,0.40,WUHU216HW,2013-04-04 23:01:00,
2013-04-04 19:06:00,41.2,37.6,30.02,ENE,68,2.5,9.6,87,0.05,,,0.41,WUHU216HW,2013-04-04 23:06:00,
2013-04-04 19:11:00,41.0,37.1,30.02,ESE,113,2.7,9.6,86,0.04,,,0.41,WUHU216HW,2013-04-04 23:11:00,
2013-04-04 19:16:00,41.0,37.1,30.02,NE,45,1.1,5.4,86,0.04,,,0.41,WUHU216HW,2013-04-04 23:16:00,
2013-04-04 19:21:00,40.9,36.9,30.01,NE,45,5.8,5.8,86,0.03,,,0.41,WUHU216HW,2013-04-04 23:21:00,
2013-04-04 19:26:00,40.9,36.9,30.00,ENE,68,3.8,5.8,86,0.03,,,0.41,WUHU216HW,2013-04-04 23:26:00,
2013-04-04 19:31:00,40.7,36.8,30.00,NE,45,2.9,6.3,86,0.03,,,0.41,WUHU216HW,2013-04-04 23:31:00,
2013-04-04 19:36:00,40.7,36.8,29.99,ENE,68,2.9,6.3,86,0.02,,,0.41,WUHU216HW,2013-04-04 23:36:00,
2013-04-04 19:41:00,40.7,37.1,29.99,NE,45,5.4,6.3,87,0.02,,,0.41,WUHU216HW,2013-04-04 23:41:00,
2013-04-04 19:46:00,40.5,36.6,29.98,East,90,2.9,6.3,86,0.02,,,0.41,WUHU216HW,2013-04-04 23:46:00,
2013-04-04 19:51:00,40.5,36.9,29.98,ENE,68,3.1,6.3,87,0.02,,,0.41,WUHU216HW,2013-04-04 23:51:00,
2013-04-04 19:56:00,40.5,36.9,29.99,ESE,113,6.3,6.3,87,0.01,,,0.41,WUHU216HW,2013-04-04 23:56:00,
2013-04-04 20:00:00,40.5,36.9,29.99,ENE,68,1.8,6.3,87,0.00,,,0.41,WUHU216HW,2013-04-05 00:00:00,
2013-04-04 20:05:00,40.5,36.9,29.99,ENE,68,1.6,6.3,87,0.00,,,0.41,WUHU216HW,2013-04-05 00:05:00,
2013-04-04 20:10:00,40.5,36.9,29.99,ENE,68,2.5,4.7,87,0.00,,,0.41,WUHU216HW,2013-04-05 00:10:00,
2013-04-04 20:16:00,40.5,37.2,29.99,NE,45,2.5,6.0,88,0.01,,,0.42,WUHU216HW,2013-04-05 00:16:00,
2013-04-04 20:21:00,40.5,37.2,29.98,NE,45,4.0,6.0,88,0.01,,,0.42,WUHU216HW,2013-04-05 00:21:00,
2013-04-04 20:26:00,40.3,36.7,29.99,ENE,68,1.6,6.7,87,0.01,,,0.42,WUHU216HW,2013-04-05 00:26:00,
2013-04-04 20:31:00,40.3,37.0,29.98,NE,45,2.5,6.7,88,0.02,,,0.43,WUHU216HW,2013-04-05 00:31:00,
2013-04-04 20:36:00,40.3,37.4,29.97,NE,45,4.7,5.1,89,0.05,,,0.46,WUHU216HW,2013-04-05 00:36:00,
2013-04-04 20:41:00,40.3,37.4,29.96,NE,45,2.0,6.3,89,0.08,,,0.49,WUHU216HW,2013-04-05 00:41:00,
2013-04-04 20:46:00,40.1,37.2,29.95,NE,45,1.8,6.3,89,0.09,,,0.50,WUHU216HW,2013-04-05 00:46:00,
2013-04-04 20:51:00,40.3,37.4,29.95,NNE,23,1.1,4.0,89,0.10,,,0.51,WUHU216HW,2013-04-05 00:51:00,
2013-04-04 20:56:00,40.3,37.4,29.95,NNE,23,0.7,4.0,89,0.13,,,0.54,WUHU216HW,2013-04-05 00:56:00,
2013-04-04 21:01:00,40.1,37.2,29.96,ENE,68,2.9,4.3,89,0.14,,,0.55,WUHU216HW,2013-04-05 01:01:00,
2013-04-04 21:06:00,40.1,37.2,29.95,NE,45,2.2,4.3,89,0.14,,,0.55,WUHU216HW,2013-04-05 01:06:00,
2013-04-04 21:11:00,40.1,37.2,29.95,ENE,68,3.4,3.8,89,0.16,,,0.57,WUHU216HW,2013-04-05 01:11:00,
2013-04-04 21:16:00,40.1,37.2,29.95,ENE,68,2.5,4.0,89,0.18,,,0.60,WUHU216HW,2013-04-05 01:16:00,
2013-04-04 21:21:00,40.1,37.2,29.95,NNW,338,1.1,4.5,89,0.19,,,0.61,WUHU216HW,2013-04-05 01:21:00,
2013-04-04 21:26:00,40.1,37.2,29.94,NNW,338,1.3,4.5,89,0.21,,,0.63,WUHU216HW,2013-04-05 01:26:00,
2013-04-04 21:31:00,40.3,37.4,29.95,NNW,338,0.9,2.5,89,0.22,,,0.65,WUHU216HW,2013-04-05 01:31:00,
2013-04-04 21:36:00,40.3,37.4,29.94,NNW,338,1.3,4.0,89,0.17,,,0.66,WUHU216HW,2013-04-05 01:36:00,
2013-04-04 21:41:00,40.3,37.4,29.95,North,0,1.1,4.0,89,0.17,,,0.67,WUHU216HW,2013-04-05 01:41:00,
2013-04-04 21:46:00,40.3,37.4,29.94,NNE,23,1.8,2.5,89,0.17,,,0.68,WUHU216HW,2013-04-05 01:46:00,
2013-04-04 21:52:00,40.3,37.4,29.94,ENE,68,1.1,5.4,89,0.17,,,0.70,WUHU216HW,2013-04-05 01:52:00,
2013-04-04 21:57:00,40.3,37.4,29.94,ENE,68,0.4,5.4,89,0.15,,,0.70,WUHU216HW,2013-04-05 01:57:00,
2013-04-04 22:02:00,40.1,37.2,29.95,NE,45,1.1,4.3,89,0.15,,,0.70,WUHU216HW,2013-04-05 02:02:00,
2013-04-04 22:07:00,40.1,37.2,29.94,North,0,0.7,2.9,89,0.15,,,0.72,WUHU216HW,2013-04-05 02:07:00,
2013-04-04 22:12:00,40.1,37.2,29.93,NNE,23,0.9,2.7,89,0.12,,,0.72,WUHU216HW,2013-04-05 02:12:00,
2013-04-04 22:17:00,40.0,37.0,29.93,NE,45,1.1,3.1,89,0.13,,,0.74,WUHU216HW,2013-04-05 02:17:00,
2013-04-04 22:22:00,40.0,37.0,29.92,NE,45,3.8,4.0,89,0.13,,,0.74,WUHU216HW,2013-04-05 02:22:00,
2013-04-04 22:27:00,40.0,37.0,29.92,ENE,68,3.6,4.0,89,0.11,,,0.75,WUHU216HW,2013-04-05 02:27:00,
2013-04-04 22:32:00,40.0,37.0,29.92,NE,45,1.8,3.8,89,0.09,,,0.75,WUHU216HW,2013-04-05 02:32:00,
2013-04-04 22:37:00,40.0,37.0,29.91,NNW,338,1.3,3.6,89,0.09,,,0.77,WUHU216HW,2013-04-05 02:37:00,
2013-04-04 22:42:00,40.0,37.0,29.91,NNE,23,2.5,3.1,89,0.08,,,0.77,WUHU216HW,2013-04-05 02:42:00,
2013-04-04 22:47:00,40.0,37.0,29.90,North,0,1.1,3.8,89,0.08,,,0.77,WUHU216HW,2013-04-05 02:47:00,
2013-04-04 22:52:00,40.0,37.3,29.90,NNE,23,2.0,3.8,90,0.08,,,0.77,WUHU216HW,2013-04-05 02:52:00,
2013-04-04 22:57:00,40.0,37.0,29.89,North,0,0.7,3.4,89,0.07,,,0.77,WUHU216HW,2013-04-05 02:57:00,
2013-04-04 23:02:00,40.0,37.0,29.90,North,0,2.0,2.9,89,0.07,,,0.79,WUHU216HW,2013-04-05 03:02:00,
2013-04-04 23:07:00,40.0,37.0,29.90,NE,45,1.6,3.4,89,0.07,,,0.79,WUHU216HW,2013-04-05 03:07:00,
2013-04-04 23:12:00,40.0,37.3,29.89,NNE,23,1.6,3.4,90,0.05,,,0.79,WUHU216HW,2013-04-05 03:12:00,
2013-04-04 23:17:00,40.0,37.3,29.89,ENE,68,1.6,4.7,90,0.04,,,0.79,WUHU216HW,2013-04-05 03:17:00,
2013-04-04 23:22:00,40.0,37.3,29.89,NNE,23,1.8,4.7,90,0.03,,,0.79,WUHU216HW,2013-04-05 03:22:00,
2013-04-04 23:27:00,40.0,37.3,29.89,ENE,68,2.0,3.6,90,0.03,,,0.79,WUHU216HW,2013-04-05 03:27:00,
2013-04-04 23:32:00,40.0,37.3,29.88,North,0,2.0,3.6,90,0.02,,,0.79,WUHU216HW,2013-04-05 03:32:00,
2013-04-04 23:37:00,40.0,37.3,29.88,NNW,338,0.0,3.4,90,0.02,,,0.79,WUHU216HW,2013-04-05 03:37:00,
2013-04-04 23:42:00,40.0,37.0,29.88,NE,45,1.1,3.4,89,0.02,,,0.79,WUHU216HW,2013-04-05 03:42:00,
2013-04-04 23:47:00,40.0,37.0,29.87,North,0,0.2,2.9,89,0.02,,,0.79,WUHU216HW,2013-04-05 03:47:00,
2013-04-04 23:52:00,40.1,37.2,29.87,WSW,248,1.1,1.8,89,0.02,,,0.79,WUHU216HW,2013-04-05 03:52:00,
2013-04-04 23:57:00,40.1,36.8,29.87,North,0,1.1,2.0,88,0.02,,,0.79,WUHU216HW,2013-04-05 03:57:00,